Time;durP1;ratioP1;P1;durP2;ratioP2;P2;SDS_P1;SDS_P2;PMS_P1;PMS_P2;Temp;Humidity;BMP_temperature;BMP_pressure;BME280_temperature;BME280_humidity;BME280_pressure;Samples;Min_cycle;Max_cycle;Signal;HPM_P1;HPM_P2
2022/02/13 00:01:10;;;;;;;17.85;5.70;;;2.70;99.90;;;;;;5053784;28;20092;-70
2022/02/13 00:03:36;;;;;;;15.15;5.00;;;2.70;99.90;;;;;;5053336;28;20028;-70
2022/02/13 00:06:02;;;;;;;18.33;6.13;;;2.70;99.90;;;;;;5053235;28;20100;-70
2022/02/13 00:08:28;;;;;;;21.17;5.80;;;2.80;99.90;;;;;;5053515;28;20106;-70
2022/02/13 00:10:53;;;;;;;24.98;5.15;;;2.90;99.90;;;;;;5053108;28;20068;-70
2022/02/13 00:13:19;;;;;;;16.27;5.35;;;2.90;99.90;;;;;;5053154;28;20036;-70
2022/02/13 00:15:44;;;;;;;25.10;5.85;;;2.90;99.90;;;;;;5053161;28;20389;-70
2022/02/13 00:18:10;;;;;;;25.58;7.47;;;2.90;99.90;;;;;;5053270;28;20025;-70
2022/02/13 00:20:36;;;;;;;14.52;6.07;;;2.90;99.90;;;;;;5053320;28;20021;-70
2022/02/13 00:23:01;;;;;;;18.17;5.53;;;2.80;99.90;;;;;;5053109;28;20021;-70
2022/02/13 00:25:28;;;;;;;17.10;5.40;;;2.70;99.90;;;;;;5035239;28;20022;-70
2022/02/13 00:27:53;;;;;;;18.17;5.75;;;2.70;99.90;;;;;;5056289;28;20017;-70
2022/02/13 00:30:19;;;;;;;23.45;6.65;;;2.70;99.90;;;;;;5057086;28;20031;-70
2022/02/13 00:32:45;;;;;;;18.20;5.53;;;2.70;99.90;;;;;;5057044;28;20017;-70
2022/02/13 00:35:12;;;;;;;17.45;5.85;;;2.70;99.90;;;;;;5057080;28;20131;-70
2022/02/13 00:37:37;;;;;;;16.05;5.25;;;2.70;99.90;;;;;;5057060;28;20096;-70
2022/02/13 00:40:04;;;;;;;22.90;5.82;;;2.60;99.90;;;;;;5057379;28;20112;-70
2022/02/13 00:42:29;;;;;;;23.13;6.78;;;2.60;99.90;;;;;;5056908;28;20474;-70
2022/02/13 00:44:55;;;;;;;27.42;6.07;;;2.50;99.90;;;;;;5057068;28;20029;-70
2022/02/13 00:47:20;;;;;;;28.33;8.25;;;2.50;99.90;;;;;;5057150;28;20033;-70
2022/02/13 00:49:46;;;;;;;21.48;6.20;;;2.50;99.90;;;;;;5057312;28;20369;-70
2022/02/13 00:52:11;;;;;;;23.92;6.93;;;2.50;99.90;;;;;;5056637;28;20056;-70
2022/02/13 00:54:38;;;;;;;18.08;6.07;;;2.40;99.90;;;;;;5056960;28;20381;-70
2022/02/13 00:57:04;;;;;;;17.55;6.00;;;2.40;99.90;;;;;;5056615;28;20032;-70
2022/02/13 00:59:30;;;;;;;26.52;6.97;;;2.40;99.90;;;;;;5056556;28;20420;-70
2022/02/13 01:01:55;;;;;;;25.67;8.57;;;2.40;99.90;;;;;;5056570;28;20028;-70
2022/02/13 01:04:21;;;;;;;26.67;7.35;;;2.30;99.90;;;;;;5056630;28;20032;-70
2022/02/13 01:06:47;;;;;;;21.60;7.35;;;2.20;99.90;;;;;;5056988;28;20021;-70
2022/02/13 01:09:12;;;;;;;27.05;6.75;;;2.30;99.90;;;;;;5056400;28;20052;-70
2022/02/13 01:11:38;;;;;;;25.08;6.80;;;2.30;99.90;;;;;;5056298;28;20547;-70
2022/02/13 01:14:05;;;;;;;18.80;6.35;;;2.20;99.90;;;;;;5056323;28;20420;-70
2022/02/13 01:16:30;;;;;;;32.10;8.40;;;2.20;99.90;;;;;;5056513;28;20021;-70
2022/02/13 01:18:56;;;;;;;15.98;6.22;;;2.20;99.90;;;;;;5056148;28;20470;-70
2022/02/13 01:21:22;;;;;;;21.77;6.95;;;2.20;99.90;;;;;;5056154;28;20074;-70
2022/02/13 01:23:48;;;;;;;29.23;8.98;;;2.30;99.90;;;;;;5056702;28;20025;-70
2022/02/13 01:26:15;;;;;;;23.35;6.50;;;2.30;99.90;;;;;;5056060;28;20024;-70
2022/02/13 01:28:41;;;;;;;30.48;7.32;;;2.30;99.90;;;;;;5056039;28;20028;-70
2022/02/13 01:31:08;;;;;;;34.70;6.88;;;2.20;99.90;;;;;;5055919;28;20025;-70
2022/02/13 01:33:34;;;;;;;18.23;7.43;;;2.20;99.90;;;;;;5056209;28;20036;-70
2022/02/13 01:36:00;;;;;;;29.23;7.70;;;2.20;99.90;;;;;;5055949;28;20103;-70
2022/02/13 01:38:27;;;;;;;33.92;7.82;;;2.10;99.90;;;;;;5055645;28;20031;-70
2022/02/13 01:40:54;;;;;;;21.13;6.43;;;2.10;99.90;;;;;;5055773;28;20432;-70
2022/02/13 01:43:20;;;;;;;22.17;7.10;;;2.00;99.90;;;;;;5056365;28;20381;-70
2022/02/13 01:45:46;;;;;;;21.00;6.93;;;1.90;99.90;;;;;;5055741;28;20087;-70
2022/02/13 01:48:12;;;;;;;27.83;7.53;;;1.90;99.90;;;;;;5037829;28;20477;-70
2022/02/13 01:50:39;;;;;;;24.60;7.05;;;1.90;99.90;;;;;;5055442;28;20029;-70
2022/02/13 01:53:05;;;;;;;34.55;8.38;;;1.90;99.90;;;;;;5055842;28;20381;-70
2022/02/13 01:55:31;;;;;;;21.33;7.93;;;1.80;99.90;;;;;;5055521;28;20104;-70
2022/02/13 01:57:57;;;;;;;26.88;7.65;;;1.80;99.90;;;;;;5055436;28;20079;-70
2022/02/13 02:00:24;;;;;;;25.85;7.65;;;1.70;99.90;;;;;;5055501;28;20038;-70
2022/02/13 02:02:49;;;;;;;24.73;7.40;;;1.70;99.90;;;;;;5055310;28;20481;-70
2022/02/13 02:05:15;;;;;;;17.48;7.18;;;1.70;99.90;;;;;;5055425;28;20025;-70
2022/02/13 02:07:40;;;;;;;33.00;7.07;;;1.70;99.90;;;;;;5055615;28;20028;-70
2022/02/13 02:10:06;;;;;;;25.30;7.15;;;1.70;99.90;;;;;;5055524;28;20029;-70
2022/02/13 02:12:32;;;;;;;24.48;6.95;;;1.80;99.90;;;;;;5055202;28;20282;-70
2022/02/13 02:14:57;;;;;;;27.77;6.97;;;1.80;99.90;;;;;;5037624;28;20040;-70
2022/02/13 02:17:23;;;;;;;29.42;8.15;;;1.90;99.90;;;;;;5055423;28;20024;-70
2022/02/13 02:19:49;;;;;;;36.80;7.35;;;2.00;99.90;;;;;;5055276;28;20025;-70
2022/02/13 02:22:16;;;;;;;25.77;7.97;;;2.10;99.90;;;;;;5055028;28;20027;-70
2022/02/13 02:24:41;;;;;;;29.20;7.82;;;2.10;99.90;;;;;;5055029;28;20465;-70
2022/02/13 02:27:07;;;;;;;26.05;6.82;;;2.20;99.90;;;;;;5055485;28;20036;-70
2022/02/13 02:29:33;;;;;;;23.48;6.75;;;2.20;99.90;;;;;;5055111;28;20021;-70
2022/02/13 02:31:59;;;;;;;30.67;7.93;;;2.30;99.90;;;;;;5054822;28;20036;-70
2022/02/13 02:34:25;;;;;;;19.88;7.18;;;2.20;99.90;;;;;;5055072;28;20047;-70
2022/02/13 02:36:51;;;;;;;32.70;7.28;;;2.20;99.90;;;;;;5054734;28;20520;-70
2022/02/13 02:39:16;;;;;;;24.92;7.80;;;2.10;99.90;;;;;;5054675;28;20029;-70
2022/02/13 02:41:42;;;;;;;27.95;6.95;;;2.10;99.90;;;;;;5054641;28;20117;-70
2022/02/13 02:44:07;;;;;;;35.97;8.63;;;2.10;99.90;;;;;;5054897;28;20033;-70
2022/02/13 02:46:33;;;;;;;16.40;7.93;;;2.10;99.90;;;;;;5054825;28;20021;-70
2022/02/13 02:48:58;;;;;;;33.97;7.68;;;2.00;99.90;;;;;;5054042;28;20111;-70
2022/02/13 02:51:24;;;;;;;27.10;7.70;;;2.10;99.90;;;;;;5054246;28;20507;-70
2022/02/13 02:53:49;;;;;;;28.75;8.43;;;2.10;99.90;;;;;;5055878;28;20037;-70
2022/02/13 02:56:15;;;;;;;23.63;8.40;;;2.10;99.90;;;;;;5054506;28;20067;-70
2022/02/13 02:58:41;;;;;;;30.95;8.93;;;2.00;99.90;;;;;;5054511;28;20033;-70
2022/02/13 03:01:06;;;;;;;26.98;8.38;;;2.00;99.90;;;;;;5054191;28;20039;-70
2022/02/13 03:03:33;;;;;;;16.83;7.13;;;2.00;99.90;;;;;;5054252;28;20495;-70
2022/02/13 03:05:59;;;;;;;18.30;7.18;;;1.90;99.90;;;;;;5054451;28;20021;-70
2022/02/13 03:08:24;;;;;;;37.33;8.18;;;1.80;99.90;;;;;;5054153;28;20083;-70
2022/02/13 03:10:50;;;;;;;28.52;8.30;;;1.80;99.90;;;;;;5054293;28;20029;-70
2022/02/13 03:13:20;;;;;;;27.15;8.15;;;1.80;99.90;;;;;;5054095;28;20033;-70
2022/02/13 03:15:46;;;;;;;20.63;7.80;;;1.80;99.90;;;;;;5054531;28;20393;-70
2022/02/13 03:18:12;;;;;;;34.28;8.65;;;1.80;99.90;;;;;;5054102;28;20028;-70
2022/02/13 03:20:39;;;;;;;22.33;9.02;;;1.80;99.90;;;;;;5054470;28;20115;-70
2022/02/13 03:23:05;;;;;;;27.80;7.90;;;1.90;99.90;;;;;;5054055;28;20025;-70
2022/02/13 03:25:31;;;;;;;25.67;8.95;;;1.90;99.90;;;;;;5054268;28;20040;-70
2022/02/13 03:27:56;;;;;;;32.85;9.30;;;1.90;99.90;;;;;;5055147;28;20054;-70
2022/02/13 03:30:23;;;;;;;25.02;8.32;;;1.90;99.90;;;;;;5056135;28;20453;-70
2022/02/13 03:32:48;;;;;;;22.67;8.43;;;1.90;99.90;;;;;;5053813;28;20022;-69
2022/02/13 03:35:14;;;;;;;23.00;7.32;;;1.80;99.90;;;;;;5053902;28;20043;-69
2022/02/13 03:37:42;;;;;;;24.52;8.93;;;1.80;99.90;;;;;;5035753;28;20021;-69
2022/02/13 03:40:08;;;;;;;25.45;8.55;;;1.80;99.90;;;;;;5053818;28;20468;-69
2022/02/13 03:42:34;;;;;;;28.25;8.82;;;1.80;99.90;;;;;;5053449;28;20470;-69
2022/02/13 03:44:59;;;;;;;34.10;8.15;;;1.80;99.90;;;;;;5053474;28;20108;-69
2022/02/13 03:47:26;;;;;;;23.77;7.60;;;1.80;99.90;;;;;;5053750;28;20055;-69
2022/02/13 03:49:52;;;;;;;28.13;9.25;;;1.80;99.90;;;;;;5053442;28;20052;-69
2022/02/13 03:52:17;;;;;;;28.80;8.63;;;1.80;99.90;;;;;;5053375;28;20068;-69
2022/02/13 03:54:43;;;;;;;37.92;9.18;;;1.80;99.90;;;;;;5053421;28;20482;-69
2022/02/13 03:57:08;;;;;;;28.63;9.45;;;1.80;99.90;;;;;;5053377;28;20028;-69
2022/02/13 03:59:34;;;;;;;33.58;8.88;;;1.80;99.90;;;;;;5053316;28;20025;-69
2022/02/13 04:01:59;;;;;;;25.45;8.60;;;1.80;99.90;;;;;;5053246;28;20017;-69
2022/02/13 04:04:25;;;;;;;30.15;8.80;;;1.80;99.90;;;;;;5053576;28;20021;-69
2022/02/13 04:06:51;;;;;;;24.77;8.88;;;1.80;99.90;;;;;;5053569;28;20063;-69
2022/02/13 04:09:16;;;;;;;27.45;8.98;;;1.80;99.90;;;;;;5053297;28;20029;-69
2022/02/13 04:11:42;;;;;;;25.83;8.60;;;1.80;99.90;;;;;;5053188;28;20033;-69
2022/02/13 04:14:07;;;;;;;42.00;9.95;;;1.80;99.90;;;;;;5053217;28;20033;-69
2022/02/13 04:16:33;;;;;;;26.90;8.80;;;1.80;99.90;;;;;;5053209;28;20393;-69
2022/02/13 04:18:59;;;;;;;27.00;9.35;;;1.70;99.90;;;;;;5053318;28;20520;-69
2022/02/13 04:21:24;;;;;;;31.77;9.48;;;1.80;99.90;;;;;;5053076;28;20025;-69
2022/02/13 04:23:50;;;;;;;32.38;10.15;;;1.80;99.90;;;;;;5053049;28;20027;-69
2022/02/13 04:26:15;;;;;;;31.52;9.43;;;1.90;99.90;;;;;;5053352;28;20059;-69
2022/02/13 04:28:41;;;;;;;28.60;9.48;;;1.90;99.90;;;;;;5053358;28;20469;-69
2022/02/13 04:31:06;;;;;;;31.52;9.90;;;1.90;99.90;;;;;;5052978;28;20021;-69
2022/02/13 04:33:32;;;;;;;25.55;10.18;;;1.80;99.90;;;;;;5053288;28;20029;-69
2022/02/13 04:35:58;;;;;;;26.40;8.55;;;1.90;99.90;;;;;;5052969;28;20029;-70
2022/02/13 04:38:24;;;;;;;35.63;12.02;;;1.90;99.90;;;;;;5052916;28;20507;-70
2022/02/13 04:40:49;;;;;;;34.55;10.30;;;1.90;99.90;;;;;;5052888;28;20033;-70
2022/02/13 04:43:15;;;;;;;28.85;10.00;;;1.90;99.90;;;;;;5053198;28;20075;-70
2022/02/13 04:45:41;;;;;;;33.10;10.43;;;2.00;99.90;;;;;;5052863;28;20021;-70
2022/02/13 04:48:06;;;;;;;31.35;10.15;;;2.00;99.90;;;;;;5052979;28;20037;-70
2022/02/13 04:50:33;;;;;;;27.63;10.27;;;2.00;99.90;;;;;;5053215;28;20492;-69
2022/02/13 04:52:59;;;;;;;24.83;9.48;;;2.00;99.90;;;;;;5053163;28;20021;-69
2022/02/13 04:55:25;;;;;;;27.75;9.98;;;2.10;99.90;;;;;;5053063;28;20024;-69
2022/02/13 04:57:52;;;;;;;23.92;9.38;;;2.10;99.90;;;;;;5053067;28;20029;-69
2022/02/13 05:00:18;;;;;;;29.85;9.70;;;2.10;99.90;;;;;;5052668;28;20060;-69
2022/02/13 05:02:45;;;;;;;26.83;10.25;;;2.20;99.90;;;;;;5034803;28;20025;-69
2022/02/13 05:05:11;;;;;;;22.30;9.48;;;2.20;99.90;;;;;;5052701;28;20385;-69
2022/02/13 05:07:37;;;;;;;29.50;10.05;;;2.20;99.90;;;;;;5053274;28;20079;-69
2022/02/13 05:10:03;;;;;;;31.45;10.95;;;2.20;99.90;;;;;;5052908;28;20032;-69
2022/02/13 05:12:29;;;;;;;29.80;10.48;;;2.20;99.90;;;;;;5053092;28;20397;-69
2022/02/13 05:14:54;;;;;;;25.05;10.10;;;2.20;99.90;;;;;;5056311;28;20021;-69
2022/02/13 05:17:21;;;;;;;21.42;8.88;;;2.20;99.90;;;;;;5056546;28;20021;-69
2022/02/13 05:19:47;;;;;;;31.85;11.07;;;2.20;99.90;;;;;;5056220;28;20115;-69
2022/02/13 05:22:13;;;;;;;29.52;10.23;;;2.10;99.90;;;;;;5056383;28;20029;-69
2022/02/13 05:24:39;;;;;;;30.48;10.57;;;2.10;99.90;;;;;;5056124;28;20021;-69
2022/02/13 05:27:06;;;;;;;33.20;11.00;;;2.20;99.90;;;;;;5056064;28;20021;-70
2022/02/13 05:29:33;;;;;;;27.42;10.82;;;2.20;99.90;;;;;;5056079;28;20489;-70
2022/02/13 05:31:59;;;;;;;25.05;9.85;;;2.10;99.90;;;;;;5055915;28;20029;-70
2022/02/13 05:34:25;;;;;;;25.85;9.80;;;2.20;99.90;;;;;;5056207;28;20175;-70
2022/02/13 05:36:51;;;;;;;38.45;11.30;;;2.10;99.90;;;;;;5056154;28;20021;-70
2022/02/13 05:39:16;;;;;;;29.35;10.77;;;2.10;99.90;;;;;;5055796;28;20040;-69
2022/02/13 05:41:42;;;;;;;26.17;9.88;;;2.20;99.90;;;;;;5055772;28;20017;-69
2022/02/13 05:44:08;;;;;;;29.33;10.48;;;2.10;99.90;;;;;;5055781;28;20127;-69
2022/02/13 05:46:34;;;;;;;30.60;11.35;;;2.10;99.90;;;;;;5055738;28;20497;-69
2022/02/13 05:48:59;;;;;;;26.90;10.48;;;2.10;99.90;;;;;;5055809;28;20104;-69
2022/02/13 05:51:26;;;;;;;32.78;11.55;;;2.10;99.90;;;;;;5037464;28;20028;-69
2022/02/13 05:53:52;;;;;;;39.35;12.75;;;2.10;99.90;;;;;;5055838;28;20076;-69
2022/02/13 05:56:18;;;;;;;34.22;11.27;;;2.00;99.90;;;;;;5055514;28;20024;-69
2022/02/13 05:58:44;;;;;;;31.70;10.80;;;2.00;99.90;;;;;;5055460;28;20029;-69
2022/02/13 06:01:10;;;;;;;30.17;12.02;;;2.00;99.90;;;;;;5055415;28;20108;-69
2022/02/13 06:03:36;;;;;;;31.55;12.82;;;2.00;99.90;;;;;;5055462;28;20040;-69
2022/02/13 06:06:02;;;;;;;33.00;11.00;;;2.00;99.90;;;;;;5055904;28;20079;-69
2022/02/13 06:08:30;;;;;;;24.23;11.85;;;2.00;99.90;;;;;;5055857;28;20064;-69
2022/02/13 06:10:56;;;;;;;31.67;11.93;;;1.90;99.90;;;;;;5055204;28;20389;-69
2022/02/13 06:13:21;;;;;;;25.67;12.65;;;1.90;99.90;;;;;;5055269;28;20025;-69
2022/02/13 06:15:47;;;;;;;25.38;12.02;;;1.80;99.90;;;;;;5055467;28;20381;-69
2022/02/13 06:18:12;;;;;;;30.60;12.32;;;1.70;99.90;;;;;;5055328;28;20040;-69
2022/02/13 06:20:40;;;;;;;36.40;12.98;;;1.60;99.90;;;;;;5055022;28;20386;-69
2022/02/13 06:23:07;;;;;;;25.40;10.82;;;1.60;99.90;;;;;;5055563;28;20027;-69
2022/02/13 06:25:32;;;;;;;31.77;11.98;;;1.50;99.90;;;;;;5053947;28;20029;-69
2022/02/13 06:27:58;;;;;;;31.05;11.55;;;1.60;99.90;;;;;;5055208;28;20024;-69
2022/02/13 06:30:24;;;;;;;27.25;11.35;;;1.60;99.90;;;;;;5054898;28;20047;-69
2022/02/13 06:32:49;;;;;;;31.38;13.02;;;1.60;99.90;;;;;;5055049;28;20530;-69
2022/02/13 06:35:15;;;;;;;30.92;12.40;;;1.60;99.90;;;;;;5054796;28;20512;-69
2022/02/13 06:37:40;;;;;;;28.52;11.48;;;1.50;99.90;;;;;;5054760;28;20501;-69
2022/02/13 06:40:06;;;;;;;27.63;13.68;;;1.50;99.90;;;;;;5054645;28;20053;-69
2022/02/13 06:42:32;;;;;;;28.02;12.52;;;1.40;99.90;;;;;;5054619;28;20021;-69
2022/02/13 06:44:57;;;;;;;34.05;12.20;;;1.40;99.90;;;;;;5054594;28;20087;-69
2022/02/13 06:47:23;;;;;;;26.73;13.93;;;1.40;99.90;;;;;;5054587;28;20021;-69
2022/02/13 06:49:49;;;;;;;30.02;13.10;;;1.30;99.90;;;;;;5054610;28;20031;-69
2022/02/13 06:52:14;;;;;;;38.65;13.73;;;1.30;99.90;;;;;;5054324;28;20122;-69
2022/02/13 06:54:40;;;;;;;31.80;13.35;;;1.30;99.90;;;;;;5054413;28;20028;-69
2022/02/13 06:57:06;;;;;;;30.90;13.75;;;1.30;99.90;;;;;;5054380;28;20450;-70
2022/02/13 06:59:31;;;;;;;28.10;12.90;;;1.30;99.90;;;;;;5054202;28;20033;-69
2022/02/13 07:01:57;;;;;;;24.60;13.32;;;1.30;99.90;;;;;;5054192;28;20032;-69
2022/02/13 07:04:22;;;;;;;27.77;13.68;;;1.30;99.90;;;;;;5054275;28;20021;-69
2022/02/13 07:06:48;;;;;;;33.85;13.32;;;1.30;99.90;;;;;;5054183;28;20029;-69
2022/02/13 07:09:13;;;;;;;35.35;13.40;;;1.40;99.90;;;;;;5036243;28;20128;-69
2022/02/13 07:11:39;;;;;;;38.30;15.63;;;1.40;99.90;;;;;;5054038;28;20084;-69
2022/02/13 07:14:05;;;;;;;25.02;12.85;;;1.40;99.90;;;;;;5054048;28;20067;-69
2022/02/13 07:16:30;;;;;;;28.40;11.90;;;1.40;99.90;;;;;;5053929;28;20112;-69
2022/02/13 07:18:57;;;;;;;21.08;12.27;;;1.50;99.90;;;;;;5054203;28;20103;-69
2022/02/13 07:21:22;;;;;;;33.47;13.23;;;1.50;99.90;;;;;;5054036;28;20254;-69
2022/02/13 07:23:48;;;;;;;29.13;12.80;;;1.60;99.90;;;;;;5054455;28;20049;-69
2022/02/13 07:26:13;;;;;;;31.48;11.75;;;1.60;99.90;;;;;;5054110;28;20021;-69
2022/02/13 07:31:23;;;;;;;27.48;12.48;;;1.60;99.90;;;;;;5053754;28;20040;-69
2022/02/13 07:33:49;;;;;;;26.10;11.93;;;1.70;99.90;;;;;;5053718;28;20033;-69
2022/02/13 07:36:14;;;;;;;20.25;11.60;;;1.70;99.90;;;;;;5053710;28;20021;-69
2022/02/13 07:38:40;;;;;;;33.85;13.23;;;1.80;99.90;;;;;;5053718;28;20041;-69
2022/02/13 07:41:07;;;;;;;29.83;12.48;;;1.80;99.90;;;;;;5053854;28;20036;-69
2022/02/13 07:43:33;;;;;;;27.33;11.48;;;1.80;99.90;;;;;;5053822;28;20469;-69
2022/02/13 07:45:59;;;;;;;26.80;10.30;;;1.80;99.90;;;;;;5054081;28;20021;-69
2022/02/13 07:48:24;;;;;;;24.20;11.40;;;1.80;99.90;;;;;;5053499;28;20496;-69
2022/02/13 07:50:50;;;;;;;23.40;10.95;;;1.80;99.90;;;;;;5053160;28;20036;-69
2022/02/13 07:53:16;;;;;;;27.83;12.50;;;1.80;99.90;;;;;;5053741;28;20052;-69
2022/02/13 07:55:42;;;;;;;35.70;13.07;;;1.90;99.90;;;;;;5053373;28;20025;-69
2022/02/13 07:58:07;;;;;;;26.05;11.63;;;1.90;99.90;;;;;;5053295;28;20025;-69
2022/02/13 08:00:33;;;;;;;32.05;12.75;;;2.00;99.90;;;;;;5053254;28;20025;-69
2022/02/13 08:02:59;;;;;;;34.40;12.23;;;2.00;99.90;;;;;;5053300;28;20432;-69
2022/02/13 08:05:25;;;;;;;29.58;10.82;;;2.10;99.90;;;;;;5053307;28;20060;-69
2022/02/13 08:07:50;;;;;;;23.13;10.55;;;2.10;99.90;;;;;;5053546;28;20037;-69
2022/02/13 08:10:17;;;;;;;27.55;11.73;;;2.20;99.90;;;;;;5053242;28;20067;-69
2022/02/13 08:12:43;;;;;;;31.67;10.98;;;2.20;99.90;;;;;;5035266;28;20143;-69
2022/02/13 08:15:09;;;;;;;29.83;12.30;;;2.20;99.90;;;;;;5053437;28;20029;-69
2022/02/13 08:17:35;;;;;;;37.95;12.40;;;2.10;99.90;;;;;;5053207;28;20025;-69
2022/02/13 08:20:03;;;;;;;28.35;11.10;;;2.20;99.90;;;;;;5053025;28;20032;-69
2022/02/13 08:22:29;;;;;;;22.00;10.80;;;2.20;99.90;;;;;;5053059;28;20473;-69
2022/02/13 08:24:55;;;;;;;30.98;11.65;;;2.20;99.90;;;;;;5053628;28;20024;-69
2022/02/13 08:27:20;;;;;;;31.05;13.27;;;2.10;99.90;;;;;;5053325;28;20480;-69
2022/02/13 08:29:47;;;;;;;33.55;11.30;;;2.20;99.90;;;;;;5053035;28;20087;-69
2022/02/13 08:32:12;;;;;;;23.52;11.20;;;2.20;99.90;;;;;;5053836;28;20488;-70
2022/02/13 08:34:38;;;;;;;25.88;11.38;;;2.30;99.90;;;;;;5053027;28;20037;-69
2022/02/13 08:37:04;;;;;;;24.42;10.93;;;2.20;99.90;;;;;;5052979;28;20031;-69
2022/02/13 08:39:29;;;;;;;37.47;12.10;;;2.30;99.90;;;;;;5053128;28;20474;-69
2022/02/13 08:41:55;;;;;;;24.75;11.52;;;2.30;99.90;;;;;;5052868;28;20078;-69
2022/02/13 08:44:21;;;;;;;27.83;10.73;;;2.30;99.90;;;;;;5053052;28;20081;-69
2022/02/13 08:46:46;;;;;;;23.88;10.07;;;2.40;99.90;;;;;;5052905;28;20028;-69
2022/02/13 08:49:12;;;;;;;28.98;11.65;;;2.40;99.90;;;;;;5056174;28;20033;-69
2022/02/13 08:51:38;;;;;;;25.67;10.20;;;2.40;99.90;;;;;;5056565;28;20067;-69
2022/02/13 08:54:03;;;;;;;25.67;11.43;;;2.50;99.90;;;;;;5057401;28;20063;-70
2022/02/13 08:56:29;;;;;;;24.95;10.30;;;2.50;99.90;;;;;;5056677;28;20025;-70
2022/02/13 08:58:55;;;;;;;27.58;11.38;;;2.60;99.90;;;;;;5056543;28;20025;-70
2022/02/13 09:01:21;;;;;;;28.30;9.60;;;2.60;99.90;;;;;;5056508;28;20017;-70
2022/02/13 09:03:47;;;;;;;20.33;9.35;;;2.70;99.90;;;;;;5056595;28;20045;-70
2022/02/13 09:06:12;;;;;;;24.90;9.80;;;2.70;99.90;;;;;;5056522;28;20056;-70
2022/02/13 09:08:38;;;;;;;28.90;10.60;;;2.80;99.90;;;;;;5056502;28;20025;-70
2022/02/13 09:11:04;;;;;;;22.38;9.80;;;2.90;99.90;;;;;;5056930;28;20029;-70
2022/02/13 09:13:29;;;;;;;20.63;10.07;;;3.00;99.90;;;;;;5056689;28;20031;-70
2022/02/13 09:15:55;;;;;;;27.02;9.52;;;3.10;99.90;;;;;;5056722;28;20057;-70
2022/02/13 09:18:20;;;;;;;34.83;10.02;;;3.10;99.90;;;;;;5056192;28;20532;-70
2022/02/13 09:20:46;;;;;;;29.08;9.52;;;3.20;99.90;;;;;;5056162;28;20428;-71
2022/02/13 09:23:13;;;;;;;25.55;10.23;;;3.20;99.90;;;;;;5056486;28;20456;-71
2022/02/13 09:25:40;;;;;;;22.50;8.77;;;3.20;99.90;;;;;;5056147;28;20101;-70
2022/02/13 09:28:06;;;;;;;30.70;10.23;;;3.20;99.90;;;;;;5056378;28;20527;-70
2022/02/13 09:30:32;;;;;;;25.30;9.98;;;3.20;99.90;;;;;;5055983;28;20025;-70
2022/02/13 09:32:57;;;;;;;20.77;9.68;;;3.20;99.90;;;;;;5056279;28;20017;-70
2022/02/13 09:35:23;;;;;;;25.45;10.02;;;3.30;99.90;;;;;;5055964;28;20155;-71
2022/02/13 09:37:50;;;;;;;27.73;9.95;;;3.30;99.90;;;;;;5055944;28;20025;-71
2022/02/13 09:40:17;;;;;;;23.67;9.40;;;3.40;99.90;;;;;;5056094;28;20032;-70
2022/02/13 09:42:44;;;;;;;33.33;11.07;;;3.40;99.90;;;;;;5055814;28;20385;-70
2022/02/13 09:45:10;;;;;;;28.80;9.95;;;3.40;99.90;;;;;;5055835;28;20017;-70
2022/02/13 09:47:39;;;;;;;25.48;10.38;;;3.50;99.90;;;;;;5055789;28;20037;-70
2022/02/13 09:50:06;;;;;;;20.15;10.30;;;3.50;99.90;;;;;;5055669;28;20028;-70
2022/02/13 09:52:32;;;;;;;26.50;10.35;;;3.50;99.90;;;;;;5055361;28;20045;-71
2022/02/13 09:54:58;;;;;;;27.10;9.77;;;3.50;99.90;;;;;;5055641;28;20032;-71
2022/02/13 10:00:09;;;;;;;22.75;9.20;;;3.70;99.90;;;;;;5055541;28;20074;-71
2022/02/13 10:02:36;;;;;;;19.63;8.52;;;3.70;99.90;;;;;;5055442;28;20032;-71
2022/02/13 10:05:04;;;;;;;23.75;9.55;;;3.60;99.90;;;;;;5055459;28;20025;-71
2022/02/13 10:07:34;;;;;;;26.60;9.88;;;3.60;99.90;;;;;;5055420;28;20056;-70
2022/02/13 10:10:02;;;;;;;20.92;8.65;;;3.60;99.90;;;;;;5055332;28;20025;-70
2022/02/13 10:12:42;;;;;;;30.65;9.73;;;3.60;99.90;;;;;;5055275;28;20436;-70
2022/02/13 10:15:20;;;;;;;20.35;9.15;;;3.60;99.90;;;;;;5055568;28;20397;-70
2022/02/13 10:17:58;;;;;;;19.00;9.52;;;3.60;99.90;;;;;;5055140;28;20072;-70
2022/02/13 10:20:48;;;;;;;27.25;9.35;;;3.70;99.90;;;;;;5055063;28;20028;-70
2022/02/13 10:23:15;;;;;;;20.17;9.75;;;3.80;99.90;;;;;;5055047;28;20033;-70
2022/02/13 10:25:44;;;;;;;29.05;9.68;;;3.80;99.90;;;;;;5055062;28;20021;-70
2022/02/13 10:28:17;;;;;;;26.70;9.75;;;3.80;99.90;;;;;;5037105;28;20052;-74
2022/02/13 10:30:47;;;;;;;21.93;10.67;;;3.80;99.90;;;;;;5055164;28;20028;-75
2022/02/13 10:33:27;;;;;;;30.60;9.88;;;3.80;99.90;;;;;;5037024;28;20543;-74
2022/02/13 10:36:08;;;;;;;27.00;9.48;;;3.90;99.90;;;;;;5036935;28;20037;-74
2022/02/13 10:38:36;;;;;;;28.30;9.68;;;3.90;99.90;;;;;;5054750;28;20111;-74
2022/02/13 10:41:21;;;;;;;26.20;10.45;;;3.90;99.90;;;;;;5054713;28;20017;-71
2022/02/13 10:43:50;;;;;;;16.42;8.27;;;3.90;99.90;;;;;;5054658;28;20052;-70
2022/02/13 10:46:20;;;;;;;25.83;10.15;;;4.00;99.90;;;;;;5054666;28;20025;-70
2022/02/13 10:48:46;;;;;;;28.20;8.98;;;3.90;99.90;;;;;;5054839;28;20032;-70
2022/02/13 10:51:13;;;;;;;30.98;8.90;;;4.00;99.90;;;;;;5054336;28;20033;-70
2022/02/13 10:53:43;;;;;;;28.80;9.63;;;4.00;99.90;;;;;;5054512;28;20025;-70
2022/02/13 10:56:08;;;;;;;17.33;8.25;;;4.00;99.90;;;;;;5036546;28;20031;-70
2022/02/13 10:58:34;;;;;;;23.65;9.45;;;4.00;99.90;;;;;;5054304;28;20033;-70
2022/02/13 11:01:01;;;;;;;25.25;10.18;;;4.00;99.90;;;;;;5054536;28;20024;-70
2022/02/13 11:03:37;;;;;;;37.50;8.98;;;4.00;99.90;;;;;;5054285;28;20013;-70
2022/02/13 11:06:04;;;;;;;30.50;11.23;;;4.10;99.90;;;;;;5054833;28;20058;-70
2022/02/13 11:08:39;;;;;;;23.20;8.93;;;4.20;99.90;;;;;;5054184;28;20025;-71
2022/02/13 11:11:05;;;;;;;25.17;9.68;;;4.20;99.90;;;;;;5053145;28;20025;-71
2022/02/13 11:13:33;;;;;;;27.00;9.02;;;4.20;99.90;;;;;;5053168;28;20024;-71
2022/02/13 11:15:59;;;;;;;15.27;8.35;;;4.10;99.90;;;;;;5054320;28;20028;-71
2022/02/13 11:18:29;;;;;;;27.90;8.85;;;4.10;99.90;;;;;;5053916;28;20478;-71
2022/02/13 11:20:56;;;;;;;27.75;10.00;;;4.10;99.90;;;;;;5053865;28;20021;-70
2022/02/13 11:23:33;;;;;;;25.73;9.95;;;4.10;99.90;;;;;;5054216;28;20020;-71
2022/02/13 11:26:05;;;;;;;21.40;9.75;;;4.30;99.90;;;;;;5053859;28;20103;-71
2022/02/13 11:28:42;;;;;;;30.15;9.98;;;4.30;99.90;;;;;;5054224;28;20057;-71
2022/02/13 11:31:28;;;;;;;18.83;8.95;;;4.40;99.90;;;;;;5053719;28;20052;-71
2022/02/13 11:33:54;;;;;;;30.27;10.38;;;4.40;99.90;;;;;;5053624;28;20029;-71
2022/02/13 11:36:20;;;;;;;19.00;9.43;;;4.40;99.90;;;;;;5035848;28;20033;-71
2022/02/13 11:38:51;;;;;;;20.30;8.73;;;4.40;99.90;;;;;;5053479;28;20021;-71
2022/02/13 11:41:41;;;;;;;19.70;8.75;;;4.40;99.90;;;;;;5035586;28;20035;-71
2022/02/13 11:44:08;;;;;;;21.85;9.00;;;4.50;99.90;;;;;;5053377;28;20079;-71
2022/02/13 11:46:36;;;;;;;23.15;8.38;;;4.50;99.90;;;;;;5035799;28;20429;-71
2022/02/13 11:49:04;;;;;;;18.55;8.73;;;4.80;99.90;;;;;;5053536;28;20025;-71
2022/02/13 11:51:48;;;;;;;26.33;9.05;;;4.90;99.90;;;;;;5053390;28;20052;-71
2022/02/13 11:54:31;;;;;;;;;;;4.90;99.90;;;;;;5053874;28;20029;-71
2022/02/13 11:57:03;;;;;;;21.27;9.15;;;4.80;99.90;;;;;;5053399;28;19963;-71
2022/02/13 11:59:55;;;;;;;19.92;8.85;;;4.90;99.90;;;;;;5053316;28;20021;-71
2022/02/13 12:02:36;;;;;;;23.38;9.35;;;4.90;99.90;;;;;;5042114;28;20040;-71
2022/02/13 12:05:11;;;;;;;21.00;8.48;;;4.90;99.90;;;;;;5053308;28;20023;-71
2022/02/13 12:07:45;;;;;;;18.92;8.70;;;4.90;99.90;;;;;;5053337;28;20017;-72
2022/02/13 12:10:46;;;;;;;25.70;10.45;;;4.90;99.90;;;;;;5053469;28;20051;-72
2022/02/13 12:13:17;;;;;;;20.35;9.70;;;4.90;99.90;;;;;;4973499;28;20040;-72
2022/02/13 12:16:08;;;;;;;19.00;9.45;;;5.00;99.90;;;;;;5053604;28;20104;-72
2022/02/13 12:18:35;;;;;;;21.02;9.25;;;5.10;99.90;;;;;;5048707;28;20167;-72
2022/02/13 12:21:06;;;;;;;23.63;9.55;;;5.30;99.90;;;;;;5053117;28;20029;-72
2022/02/13 12:23:33;;;;;;;20.30;9.07;;;5.40;99.90;;;;;;5055958;28;20025;-73
2022/02/13 12:25:58;;;;;;;20.02;9.15;;;5.00;99.90;;;;;;5057286;28;20016;-73
2022/02/13 12:28:30;;;;;;;23.67;8.27;;;4.90;99.90;;;;;;5057260;28;20043;-72
2022/02/13 12:30:57;;;;;;;22.85;9.73;;;4.90;99.90;;;;;;5057114;28;20013;-72
2022/02/13 12:33:25;;;;;;;25.98;9.98;;;5.00;99.90;;;;;;5057701;28;20108;-72
2022/02/13 12:35:52;;;;;;;20.48;9.65;;;5.10;99.90;;;;;;5057138;28;20021;-72
2022/02/13 12:38:18;;;;;;;21.30;8.48;;;5.00;99.90;;;;;;5056991;28;20052;-71
2022/02/13 12:40:44;;;;;;;24.88;9.95;;;4.90;99.90;;;;;;5039047;28;20055;-72
2022/02/13 12:43:22;;;;;;;18.85;9.35;;;5.00;99.90;;;;;;5057570;28;20043;-72
2022/02/13 12:45:50;;;;;;;19.13;9.55;;;5.00;99.90;;;;;;5057246;28;20017;-72
2022/02/13 12:48:19;;;;;;;17.88;8.52;;;5.10;99.90;;;;;;5057172;28;20075;-71